Time;durP1;ratioP1;P1;durP2;ratioP2;P2;SDS_P1;SDS_P2;PMS_P1;PMS_P2;Temp;Humidity;BMP_temperature;BMP_pressure;BME280_temperature;BME280_humidity;BME280_pressure;Samples;Min_cycle;Max_cycle;Signal;HPM_P1;HPM_P2
2023/08/12 00:00:12;;;;;;;9.02;6.60;;;18.80;93.40;;;;;;5094511;28;20078;-81
2023/08/12 00:02:40;;;;;;;11.40;6.80;;;18.80;93.00;;;;;;5094611;28;20040;-80
2023/08/12 00:05:06;;;;;;;9.65;6.55;;;18.80;93.10;;;;;;5094928;28;20051;-81
2023/08/12 00:07:36;;;;;;;12.13;6.22;;;18.80;93.20;;;;;;5094354;28;20036;-81
2023/08/12 00:10:04;;;;;;;8.77;5.50;;;18.80;93.10;;;;;;5077558;28;20040;-81
2023/08/12 00:12:33;;;;;;;8.13;6.18;;;18.80;92.90;;;;;;5094618;28;20282;-81
2023/08/12 00:14:59;;;;;;;10.32;5.43;;;18.80;92.90;;;;;;5094681;28;20222;-80
2023/08/12 00:17:25;;;;;;;7.18;5.60;;;18.90;92.70;;;;;;5094375;28;20523;-81
2023/08/12 00:19:51;;;;;;;8.80;5.35;;;18.90;93.10;;;;;;5077413;28;20055;-81
2023/08/12 00:22:16;;;;;;;8.10;5.68;;;18.90;93.10;;;;;;5060682;28;20130;-81
2023/08/12 00:24:43;;;;;;;10.02;5.70;;;18.80;93.10;;;;;;5094165;28;20544;-80
2023/08/12 00:27:08;;;;;;;10.10;5.78;;;18.80;93.10;;;;;;5094051;28;20044;-81
2023/08/12 00:29:35;;;;;;;10.25;6.18;;;18.80;93.50;;;;;;5094055;28;20038;-80
2023/08/12 00:32:01;;;;;;;10.50;6.25;;;18.70;93.50;;;;;;5060394;28;20056;-80
2023/08/12 00:34:26;;;;;;;10.65;5.75;;;18.70;93.40;;;;;;5077200;28;20146;-80
2023/08/12 00:36:52;;;;;;;12.63;6.22;;;18.70;93.20;;;;;;5093932;28;20123;-80
2023/08/12 00:39:18;;;;;;;14.98;5.90;;;18.70;93.10;;;;;;5093788;28;20071;-80
2023/08/12 00:41:43;;;;;;;7.35;5.60;;;18.70;93.40;;;;;;5076979;28;20071;-80
2023/08/12 00:44:09;;;;;;;9.40;5.90;;;18.70;93.40;;;;;;5077003;28;20133;-80
2023/08/12 00:46:37;;;;;;;9.95;6.47;;;18.70;93.60;;;;;;5093586;28;20036;-80
2023/08/12 00:49:04;;;;;;;9.27;6.50;;;18.70;93.30;;;;;;5060307;28;20047;-80
2023/08/12 00:51:30;;;;;;;8.32;6.50;;;18.70;93.20;;;;;;5076805;28;20047;-80
2023/08/12 00:53:58;;;;;;;7.28;5.60;;;18.60;93.30;;;;;;5076772;28;20401;-79
2023/08/12 00:56:26;;;;;;;11.45;7.10;;;18.60;93.60;;;;;;5076960;28;20039;-80
2023/08/12 00:58:52;;;;;;;8.45;4.90;;;18.60;93.60;;;;;;5093659;28;20490;-79
2023/08/12 01:01:19;;;;;;;12.73;6.65;;;18.60;93.50;;;;;;5076538;28;20044;-80
2023/08/12 01:03:45;;;;;;;10.68;6.50;;;18.60;93.50;;;;;;5093372;28;20492;-80
2023/08/12 01:06:12;;;;;;;8.15;6.45;;;18.60;93.70;;;;;;5092974;28;20127;-80
2023/08/12 01:08:38;;;;;;;11.05;7.68;;;18.60;93.30;;;;;;5093208;28;20040;-80
2023/08/12 01:11:25;;;;;;;7.43;5.47;;;18.50;93.70;;;;;;5076379;28;20500;-80
2023/08/12 01:14:15;;;;;;;9.50;6.97;;;18.50;93.90;;;;;;5076652;28;20388;-80
2023/08/12 01:16:46;;;;;;;11.32;6.50;;;18.50;93.70;;;;;;5093175;28;20286;-80
2023/08/12 01:19:34;;;;;;;11.13;6.65;;;18.50;93.60;;;;;;5076155;28;20046;-80
2023/08/12 01:22:01;;;;;;;13.65;7.57;;;18.50;93.60;;;;;;5092990;28;20043;-78
2023/08/12 01:24:33;;;;;;;13.48;7.40;;;18.50;93.70;;;;;;5076096;28;20132;-78
2023/08/12 01:26:59;;;;;;;11.32;7.05;;;18.50;94.30;;;;;;5092969;28;20040;-78
2023/08/12 01:29:25;;;;;;;10.40;7.35;;;18.50;94.20;;;;;;5092863;28;20089;-78
2023/08/12 01:32:15;;;;;;;9.18;6.60;;;18.40;94.10;;;;;;5059139;28;20052;-78
2023/08/12 01:34:55;;;;;;;11.38;7.55;;;18.40;94.30;;;;;;5076168;28;20388;-78
2023/08/12 01:37:27;;;;;;;9.88;6.65;;;18.40;94.10;;;;;;5093117;28;20066;-78
2023/08/12 01:39:55;;;;;;;12.43;7.45;;;18.40;94.00;;;;;;5092650;28;20071;-78
2023/08/12 01:42:21;;;;;;;13.02;7.65;;;18.40;94.10;;;;;;5076031;28;20459;-80
2023/08/12 01:44:48;;;;;;;9.65;7.05;;;18.40;94.00;;;;;;5075906;28;20040;-80
2023/08/12 01:47:14;;;;;;;11.82;8.65;;;18.40;93.80;;;;;;5092527;28;20101;-80
2023/08/12 01:49:39;;;;;;;13.30;8.13;;;18.40;93.80;;;;;;5076087;28;20044;-80
2023/08/12 01:52:05;;;;;;;12.38;8.85;;;18.40;93.80;;;;;;5075657;28;20397;-80
2023/08/12 01:54:33;;;;;;;13.43;8.73;;;18.40;94.20;;;;;;5075879;28;20083;-80
2023/08/12 01:57:05;;;;;;;13.05;8.38;;;18.40;94.50;;;;;;5076100;28;20404;-80
2023/08/12 01:59:32;;;;;;;13.23;8.25;;;18.40;94.30;;;;;;5075591;28;20466;-80
2023/08/12 02:01:57;;;;;;;13.70;7.88;;;18.40;94.60;;;;;;5092341;28;20044;-80
2023/08/12 02:04:23;;;;;;;13.95;9.15;;;18.40;94.40;;;;;;5092507;28;20040;-80
2023/08/12 02:06:49;;;;;;;14.30;8.48;;;18.40;94.30;;;;;;5092173;28;20036;-79
2023/08/12 02:09:15;;;;;;;12.77;8.95;;;18.40;94.20;;;;;;5059061;28;20062;-80
2023/08/12 02:11:41;;;;;;;14.98;8.63;;;18.50;94.50;;;;;;5075644;28;20094;-80
2023/08/12 02:14:06;;;;;;;14.95;9.25;;;18.40;94.80;;;;;;5092159;28;20480;-80
2023/08/12 02:16:32;;;;;;;12.52;8.52;;;18.50;94.70;;;;;;5058174;28;20126;-80
2023/08/12 02:18:58;;;;;;;12.75;9.02;;;18.50;94.60;;;;;;5092052;28;20036;-80
2023/08/12 02:21:23;;;;;;;15.10;8.93;;;18.50;94.50;;;;;;5092278;28;20114;-81
2023/08/12 02:23:49;;;;;;;14.77;9.27;;;18.50;94.40;;;;;;5075194;28;20047;-80
2023/08/12 02:26:16;;;;;;;13.02;8.65;;;18.50;94.40;;;;;;5058627;28;20044;-80
2023/08/12 02:28:41;;;;;;;12.35;8.57;;;18.50;94.20;;;;;;5075295;28;20040;-80
2023/08/12 02:31:07;;;;;;;14.20;9.05;;;18.50;94.30;;;;;;5074928;28;20446;-80
2023/08/12 02:33:33;;;;;;;11.50;8.20;;;18.50;94.60;;;;;;5075152;28;20203;-80
2023/08/12 02:35:58;;;;;;;14.98;8.95;;;18.50;94.50;;;;;;5058593;28;20135;-80
2023/08/12 02:38:24;;;;;;;14.32;9.10;;;18.60;94.40;;;;;;5074957;28;20040;-80
2023/08/12 02:40:50;;;;;;;14.07;8.75;;;18.60;94.30;;;;;;5075238;28;20101;-80
2023/08/12 02:43:17;;;;;;;12.27;9.23;;;18.50;94.20;;;;;;5075013;28;20122;-80
2023/08/12 02:45:43;;;;;;;13.35;8.90;;;18.60;94.20;;;;;;5091950;28;20126;-81
2023/08/12 02:48:10;;;;;;;12.10;8.88;;;18.60;94.50;;;;;;5075278;28;20036;-80
2023/08/12 02:50:36;;;;;;;14.02;8.70;;;18.60;94.50;;;;;;5091919;28;20119;-80
2023/08/12 02:53:02;;;;;;;11.38;8.10;;;18.70;94.40;;;;;;5058146;28;20282;-80
2023/08/12 02:55:28;;;;;;;14.93;8.52;;;18.70;94.30;;;;;;5075104;28;20036;-80
2023/08/12 02:57:54;;;;;;;13.02;8.02;;;18.70;94.20;;;;;;5075036;28;20392;-80
2023/08/12 03:00:20;;;;;;;13.70;8.98;;;18.70;94.40;;;;;;5074736;28;20048;-80
2023/08/12 03:02:46;;;;;;;14.23;8.77;;;18.70;94.50;;;;;;5058409;28;20047;-81
2023/08/12 03:05:11;;;;;;;13.00;8.75;;;18.70;94.40;;;;;;5074750;28;20043;-80
2023/08/12 03:07:37;;;;;;;12.35;8.75;;;18.80;94.20;;;;;;5091558;28;20404;-80
2023/08/12 03:10:03;;;;;;;15.13;8.43;;;18.80;94.50;;;;;;5074865;28;20036;-80
2023/08/12 03:12:28;;;;;;;12.18;8.57;;;18.70;94.40;;;;;;5091399;28;20036;-80
2023/08/12 03:14:54;;;;;;;15.55;9.70;;;18.80;94.40;;;;;;5074646;28;20051;-80
2023/08/12 03:17:20;;;;;;;11.88;8.45;;;18.70;94.50;;;;;;5091758;28;20047;-80
2023/08/12 03:19:46;;;;;;;17.38;9.63;;;18.70;94.60;;;;;;5074821;28;20051;-80
2023/08/12 03:22:11;;;;;;;13.43;8.73;;;18.60;94.80;;;;;;5091412;28;20043;-80
2023/08/12 03:24:37;;;;;;;12.98;8.57;;;18.60;94.40;;;;;;5091430;28;20113;-80
2023/08/12 03:27:03;;;;;;;14.18;9.90;;;18.70;94.30;;;;;;5091236;28;20058;-80
2023/08/12 03:29:28;;;;;;;14.18;9.45;;;18.60;94.90;;;;;;5094953;28;20040;-81
2023/08/12 03:31:54;;;;;;;12.25;8.70;;;18.60;94.70;;;;;;5077868;28;20063;-80
2023/08/12 03:34:20;;;;;;;16.15;9.80;;;18.60;94.60;;;;;;5095093;28;20074;-80
2023/08/12 03:36:48;;;;;;;13.43;9.75;;;18.60;94.40;;;;;;5061977;28;20128;-80
2023/08/12 03:39:14;;;;;;;13.60;9.43;;;18.60;94.70;;;;;;5062101;28;20039;-80
2023/08/12 03:41:39;;;;;;;11.23;8.02;;;18.70;94.70;;;;;;5078296;28;20431;-80
2023/08/12 03:44:05;;;;;;;13.73;9.82;;;18.60;94.50;;;;;;5094882;28;20404;-81
2023/08/12 03:46:31;;;;;;;13.75;9.15;;;18.60;94.60;;;;;;5077924;28;20051;-80
2023/08/12 03:48:57;;;;;;;15.35;9.77;;;18.70;94.70;;;;;;5078183;28;20028;-81
2023/08/12 03:51:22;;;;;;;14.55;10.52;;;18.70;94.60;;;;;;5094782;28;20420;-80
2023/08/12 03:53:48;;;;;;;14.18;9.90;;;18.70;94.70;;;;;;5061362;28;20040;-80
2023/08/12 03:56:16;;;;;;;15.77;10.68;;;18.70;94.70;;;;;;5094905;28;20040;-80
2023/08/12 03:58:42;;;;;;;15.52;10.10;;;18.80;95.00;;;;;;5094848;28;20056;-80
2023/08/12 04:01:08;;;;;;;18.08;10.45;;;18.70;95.10;;;;;;5094959;28;20557;-80
2023/08/12 04:03:34;;;;;;;13.68;9.80;;;18.70;95.00;;;;;;5094624;28;20126;-80
2023/08/12 04:05:59;;;;;;;16.50;10.52;;;18.80;95.30;;;;;;5077839;28;20135;-80
2023/08/12 04:08:25;;;;;;;15.55;8.73;;;18.80;95.40;;;;;;5094525;28;20422;-80
2023/08/12 04:10:51;;;;;;;13.32;9.45;;;18.80;95.00;;;;;;5060912;28;20071;-80
2023/08/12 04:13:17;;;;;;;14.50;8.75;;;18.70;95.20;;;;;;5094711;28;20119;-80
2023/08/12 04:15:48;;;;;;;12.07;8.40;;;18.80;95.20;;;;;;5077543;28;20047;-80
2023/08/12 04:18:14;;;;;;;12.50;8.65;;;18.80;95.10;;;;;;5094278;28;20075;-80
2023/08/12 04:20:40;;;;;;;13.00;8.98;;;18.80;95.00;;;;;;5094128;28;20082;-80
2023/08/12 04:23:06;;;;;;;12.93;9.18;;;18.80;95.00;;;;;;5077262;28;20040;-80
2023/08/12 04:25:31;;;;;;;12.77;8.85;;;18.80;94.90;;;;;;5076675;28;20102;-81
2023/08/12 04:27:58;;;;;;;18.33;9.77;;;18.80;94.90;;;;;;5093300;28;20036;-81
2023/08/12 04:30:24;;;;;;;14.43;9.85;;;18.90;94.80;;;;;;5093592;28;20044;-80
2023/08/12 04:32:49;;;;;;;12.68;10.07;;;18.80;95.00;;;;;;5093217;28;20054;-80
2023/08/12 04:35:15;;;;;;;14.23;8.68;;;18.90;95.10;;;;;;5060028;28;20042;-81
2023/08/12 04:37:41;;;;;;;14.93;9.48;;;18.90;95.00;;;;;;5093927;28;20044;-80
2023/08/12 04:40:07;;;;;;;9.55;7.70;;;18.90;95.00;;;;;;5076064;28;20036;-80
2023/08/12 04:42:33;;;;;;;19.10;9.57;;;18.90;94.70;;;;;;5077166;28;20036;-80
2023/08/12 04:44:59;;;;;;;14.35;8.98;;;18.90;94.90;;;;;;5077024;28;20036;-80
2023/08/12 04:47:25;;;;;;;17.73;10.18;;;18.90;95.00;;;;;;5076977;28;20036;-80
2023/08/12 04:49:51;;;;;;;11.45;8.35;;;18.90;94.80;;;;;;5093656;28;20521;-80
2023/08/12 04:52:17;;;;;;;17.45;9.63;;;18.90;94.70;;;;;;5060358;28;20040;-80
2023/08/12 04:54:43;;;;;;;14.05;9.80;;;18.90;95.00;;;;;;5093860;28;20048;-80
2023/08/12 04:57:09;;;;;;;15.13;9.77;;;19.00;94.60;;;;;;5076871;28;20480;-80
2023/08/12 04:59:34;;;;;;;15.23;8.30;;;19.00;94.90;;;;;;5059941;28;20047;-80
2023/08/12 05:02:00;;;;;;;12.80;8.15;;;19.00;94.80;;;;;;5076644;28;20046;-80
2023/08/12 05:04:26;;;;;;;15.10;10.00;;;19.00;94.80;;;;;;5076489;28;20035;-80
2023/08/12 05:06:51;;;;;;;15.43;9.68;;;19.00;94.80;;;;;;5093298;28;20567;-80
2023/08/12 05:09:17;;;;;;;15.15;10.27;;;19.10;94.80;;;;;;5076686;28;20036;-80
2023/08/12 05:11:43;;;;;;;13.45;9.05;;;19.10;94.90;;;;;;5076751;28;20083;-81
2023/08/12 05:14:09;;;;;;;14.68;8.18;;;19.20;94.70;;;;;;5059753;28;20040;-80
2023/08/12 05:16:34;;;;;;;14.73;9.80;;;19.20;94.50;;;;;;5093191;28;20040;-80
2023/08/12 05:19:00;;;;;;;14.98;9.68;;;19.20;94.70;;;;;;5093352;28;20039;-80
2023/08/12 05:21:26;;;;;;;12.45;9.63;;;19.30;94.70;;;;;;5059933;28;20507;-80
2023/08/12 05:23:52;;;;;;;11.75;9.32;;;19.30;94.80;;;;;;5093004;28;20048;-80
2023/08/12 05:26:18;;;;;;;14.50;9.48;;;19.30;94.70;;;;;;5092887;28;20048;-80
2023/08/12 05:28:44;;;;;;;16.73;10.13;;;19.30;94.70;;;;;;5076067;28;20032;-80
2023/08/12 05:31:09;;;;;;;13.38;10.45;;;19.40;94.60;;;;;;5093204;28;20121;-80
2023/08/12 05:33:35;;;;;;;15.85;10.98;;;19.40;94.60;;;;;;5092626;28;20060;-80
2023/08/12 05:36:01;;;;;;;16.58;10.60;;;19.40;94.70;;;;;;5059492;28;20044;-80
2023/08/12 05:38:26;;;;;;;18.38;10.82;;;19.40;94.80;;;;;;5059157;28;20515;-80
2023/08/12 05:40:52;;;;;;;14.70;10.93;;;19.40;94.70;;;;;;5075853;28;20063;-80
2023/08/12 05:43:18;;;;;;;14.35;10.60;;;19.40;94.60;;;;;;5076529;28;20040;-80
2023/08/12 05:45:43;;;;;;;15.32;10.35;;;19.40;94.50;;;;;;5076445;28;20158;-81
2023/08/12 05:48:09;;;;;;;17.02;10.63;;;19.40;94.50;;;;;;5093209;28;20048;-80
2023/08/12 05:50:35;;;;;;;19.85;11.77;;;19.40;94.50;;;;;;5093120;28;20548;-80
2023/08/12 05:53:00;;;;;;;16.85;10.30;;;19.40;94.80;;;;;;5093747;28;20121;-80
2023/08/12 05:55:26;;;;;;;16.42;10.93;;;19.40;94.70;;;;;;5076138;28;20537;-79
2023/08/12 05:57:52;;;;;;;14.95;11.40;;;19.40;94.90;;;;;;5076171;28;20040;-80
2023/08/12 06:00:17;;;;;;;21.23;11.70;;;19.40;94.70;;;;;;5059206;28;20031;-80
2023/08/12 06:02:43;;;;;;;15.27;10.55;;;19.50;94.80;;;;;;5092763;28;20040;-81
2023/08/12 06:05:09;;;;;;;18.58;12.20;;;19.50;94.80;;;;;;5093471;28;20040;-81
2023/08/12 06:07:35;;;;;;;20.77;13.07;;;19.40;94.90;;;;;;5075849;28;20043;-81
2023/08/12 06:10:01;;;;;;;18.92;11.13;;;19.40;95.00;;;;;;5092942;28;20097;-80
2023/08/12 06:12:27;;;;;;;18.73;11.38;;;19.50;94.90;;;;;;5059165;28;20123;-80
2023/08/12 06:14:52;;;;;;;18.20;11.35;;;19.50;94.80;;;;;;5076223;28;20075;-81
2023/08/12 06:17:18;;;;;;;19.17;12.40;;;19.50;94.70;;;;;;5075771;28;20404;-81
2023/08/12 06:19:44;;;;;;;19.92;11.85;;;19.50;94.80;;;;;;5059263;28;20051;-80
2023/08/12 06:22:09;;;;;;;20.30;12.45;;;19.50;94.90;;;;;;5059298;28;20499;-80
2023/08/12 06:24:35;;;;;;;17.63;12.15;;;19.50;94.80;;;;;;5092732;28;20043;-81
2023/08/12 06:27:01;;;;;;;20.73;12.25;;;19.50;94.90;;;;;;5075622;28;20385;-81
2023/08/12 06:29:26;;;;;;;18.40;11.73;;;19.50;95.00;;;;;;5092606;28;20107;-80
2023/08/12 06:31:53;;;;;;;19.13;12.32;;;19.60;94.90;;;;;;5075742;28;20381;-81
2023/08/12 06:34:19;;;;;;;17.05;12.60;;;19.60;95.00;;;;;;5076003;28;20051;-81
2023/08/12 06:36:44;;;;;;;17.30;12.55;;;19.60;94.80;;;;;;5075453;28;20484;-81
2023/08/12 06:39:10;;;;;;;19.90;12.35;;;19.60;95.00;;;;;;5058777;28;20048;-81
2023/08/12 06:41:36;;;;;;;17.88;12.65;;;19.60;95.00;;;;;;5075500;28;20066;-81
2023/08/12 06:44:03;;;;;;;19.80;12.88;;;19.70;94.90;;;;;;5075708;28;20048;-81
2023/08/12 06:46:30;;;;;;;17.52;12.80;;;19.70;95.00;;;;;;5092204;28;20044;-81
2023/08/12 06:48:56;;;;;;;20.23;13.27;;;19.70;94.70;;;;;;5092382;28;20036;-80
2023/08/12 06:51:22;;;;;;;22.08;14.18;;;19.80;94.70;;;;;;5075428;28;20928;-81
2023/08/12 06:53:48;;;;;;;18.85;12.25;;;19.80;94.80;;;;;;5075879;28;20051;-80
2023/08/12 06:56:13;;;;;;;20.63;12.27;;;19.80;94.90;;;;;;5092433;28;20123;-80
2023/08/12 06:58:39;;;;;;;20.48;13.45;;;19.80;94.80;;;;;;5042099;28;20040;-80
2023/08/12 07:01:05;;;;;;;20.27;13.57;;;19.80;94.70;;;;;;5075443;28;20131;-81
2023/08/12 07:03:32;;;;;;;29.80;16.23;;;19.90;94.60;;;;;;5060870;28;20635;-80
2023/08/12 07:05:58;;;;;;;22.75;14.48;;;19.90;94.50;;;;;;5079346;28;20051;-80
2023/08/12 07:08:24;;;;;;;29.13;14.70;;;19.90;94.70;;;;;;5062622;28;20048;-82
2023/08/12 07:10:50;;;;;;;21.25;15.80;;;19.90;94.80;;;;;;5079801;28;20028;-80
2023/08/12 07:13:15;;;;;;;19.92;15.77;;;19.90;94.80;;;;;;5079156;28;20529;-78
2023/08/12 07:15:41;;;;;;;23.88;15.77;;;19.90;94.80;;;;;;5079245;28;20070;-80
2023/08/12 07:18:07;;;;;;;22.30;15.60;;;19.90;94.80;;;;;;5078985;28;20122;-80
2023/08/12 07:20:33;;;;;;;22.25;15.25;;;19.90;94.90;;;;;;5095971;28;20072;-79
2023/08/12 07:22:58;;;;;;;25.55;15.95;;;19.90;94.80;;;;;;5079222;28;20028;-79
2023/08/12 07:25:24;;;;;;;19.15;15.32;;;19.90;94.80;;;;;;5079130;28;20047;-82
2023/08/12 07:27:50;;;;;;;25.92;16.13;;;20.00;94.80;;;;;;5078897;28;20040;-82
2023/08/12 07:30:15;;;;;;;23.45;17.10;;;20.00;94.80;;;;;;5078729;28;20035;-83
2023/08/12 07:32:41;;;;;;;23.40;17.13;;;20.00;94.80;;;;;;5061597;28;20091;-84
2023/08/12 07:35:07;;;;;;;24.65;16.33;;;20.00;94.70;;;;;;5062302;28;20036;-86
2023/08/12 07:37:33;;;;;;;21.85;15.02;;;20.00;94.80;;;;;;5078691;28;20044;-82
2023/08/12 07:39:59;;;;;;;23.38;15.55;;;20.00;94.80;;;;;;5078738;28;20073;-82
2023/08/12 07:42:25;;;;;;;25.02;16.50;;;20.00;94.80;;;;;;5078736;28;20109;-80
2023/08/12 07:44:50;;;;;;;20.95;15.10;;;19.90;94.70;;;;;;5061628;28;20484;-80
2023/08/12 07:47:16;;;;;;;18.58;15.98;;;19.90;94.70;;;;;;5078278;28;20048;-83
2023/08/12 07:49:43;;;;;;;22.35;15.40;;;19.90;94.70;;;;;;5078448;28;20032;-84
2023/08/12 07:52:09;;;;;;;20.40;14.50;;;20.00;94.70;;;;;;5078680;28;20097;-82
2023/08/12 07:54:35;;;;;;;22.70;16.77;;;20.00;94.70;;;;;;5078758;28;20035;-83
2023/08/12 07:57:01;;;;;;;26.50;16.75;;;20.00;94.90;;;;;;5095569;28;20036;-81
2023/08/12 07:59:26;;;;;;;26.63;16.55;;;19.90;95.30;;;;;;5078320;28;20430;-84
2023/08/12 08:01:52;;;;;;;28.40;18.65;;;19.90;95.50;;;;;;5078331;28;20561;-85
2023/08/12 08:04:18;;;;;;;28.17;18.20;;;19.90;95.60;;;;;;5094845;28;20040;-80
2023/08/12 08:06:44;;;;;;;29.55;19.45;;;19.90;95.80;;;;;;5061385;28;20048;-83
2023/08/12 08:09:10;;;;;;;22.25;16.38;;;19.90;95.70;;;;;;5077776;28;20354;-81
2023/08/12 08:11:36;;;;;;;25.48;18.92;;;19.90;95.50;;;;;;5094786;28;20036;-83
2023/08/12 08:14:02;;;;;;;24.90;17.92;;;19.90;95.60;;;;;;5093880;28;20123;-80
2023/08/12 08:16:27;;;;;;;25.73;18.52;;;19.90;95.60;;;;;;5077362;28;20127;-81
2023/08/12 08:18:53;;;;;;;26.85;19.63;;;19.90;95.60;;;;;;5061064;28;20044;-86
2023/08/12 08:21:19;;;;;;;25.58;17.45;;;19.90;96.00;;;;;;5080871;28;20044;-82
2023/08/12 08:23:45;;;;;;;25.77;19.27;;;19.90;95.80;;;;;;5089451;28;20174;-83
2023/08/12 08:26:11;;;;;;;28.27;18.88;;;19.90;95.90;;;;;;5091182;28;20051;-83
2023/08/12 08:28:38;;;;;;;24.65;17.00;;;19.90;95.80;;;;;;5056662;28;20115;-80
2023/08/12 08:31:04;;;;;;;24.80;18.08;;;19.90;96.20;;;;;;5072629;28;20044;-77
2023/08/12 08:33:29;;;;;;;22.27;16.85;;;19.90;96.10;;;;;;5090018;28;20052;-79
2023/08/12 08:35:55;;;;;;;25.83;18.30;;;19.80;96.00;;;;;;5090212;28;20479;-82
2023/08/12 08:38:21;;;;;;;21.90;15.77;;;19.90;96.10;;;;;;5071706;28;20477;-81
2023/08/12 08:40:49;;;;;;;33.17;19.88;;;19.90;95.80;;;;;;5055604;28;20416;-77
2023/08/12 08:43:23;;;;;;;26.13;18.83;;;19.90;95.80;;;;;;5070552;28;20052;-80
2023/08/12 08:45:53;;;;;;;21.50;15.90;;;19.90;95.80;;;;;;5069628;28;20063;-79
2023/08/12 08:48:20;;;;;;;28.05;18.40;;;19.90;96.00;;;;;;5054381;28;20032;-81
2023/08/12 08:50:47;;;;;;;20.85;15.43;;;19.90;95.90;;;;;;5069941;28;20048;-82
2023/08/12 08:53:15;;;;;;;28.55;20.38;;;19.90;96.10;;;;;;5085315;28;20432;-80
2023/08/12 08:55:41;;;;;;;27.83;20.00;;;19.90;96.50;;;;;;5085384;28;21045;-78
2023/08/12 08:58:07;;;;;;;25.02;20.42;;;19.90;96.50;;;;;;5068565;28;20068;-81
2023/08/12 09:00:33;;;;;;;31.40;22.50;;;19.90;96.50;;;;;;5084303;28;20174;-84
2023/08/12 09:03:00;;;;;;;27.58;20.17;;;19.90;96.60;;;;;;5069125;28;20044;-79
2023/08/12 09:05:27;;;;;;;28.70;22.25;;;19.90;96.50;;;;;;5068939;28;20044;-81
2023/08/12 09:07:54;;;;;;;33.00;23.30;;;19.90;96.50;;;;;;5084510;28;20044;-82
2023/08/12 09:10:21;;;;;;;27.25;21.30;;;19.90;96.40;;;;;;5084661;28;20488;-82
2023/08/12 09:12:47;;;;;;;24.80;20.15;;;19.90;96.40;;;;;;5069042;28;20124;-80
2023/08/12 09:15:13;;;;;;;23.48;19.38;;;19.90;96.30;;;;;;5085726;28;20044;-80
2023/08/12 09:17:39;;;;;;;26.17;18.77;;;19.90;96.40;;;;;;5072843;28;20078;-80
2023/08/12 09:20:11;;;;;;;29.85;22.02;;;19.90;96.20;;;;;;5092912;28;20480;-79
2023/08/12 09:22:41;;;;;;;29.20;20.27;;;19.90;96.20;;;;;;5076437;28;20052;-80
2023/08/12 09:25:08;;;;;;;30.30;22.15;;;19.90;96.20;;;;;;5076028;28;20498;-83
2023/08/12 09:27:36;;;;;;;27.33;20.55;;;19.90;96.10;;;;;;5092817;28;20408;-82
2023/08/12 09:30:06;;;;;;;26.25;20.60;;;19.90;96.10;;;;;;5092896;28;20036;-81
2023/08/12 09:32:34;;;;;;;28.42;21.90;;;19.90;96.20;;;;;;5091934;28;20058;-81
2023/08/12 09:35:02;;;;;;;28.55;21.85;;;20.00;96.50;;;;;;5092425;28;20036;-81
2023/08/12 09:37:28;;;;;;;28.40;22.17;;;20.00;96.50;;;;;;5092920;28;20082;-80
2023/08/12 09:39:54;;;;;;;29.05;22.15;;;20.00;96.60;;;;;;5076194;28;20036;-80
2023/08/12 09:42:20;;;;;;;28.75;21.02;;;20.00;96.50;;;;;;5092730;28;20399;-80
2023/08/12 09:44:46;;;;;;;32.40;20.33;;;20.00;96.40;;;;;;5093117;28;20040;-80
2023/08/12 09:47:12;;;;;;;24.75;13.43;;;20.00;96.40;;;;;;5092568;28;20577;-81
2023/08/12 09:49:39;;;;;;;17.58;11.90;;;20.00;96.40;;;;;;5059267;28;20036;-80
2023/08/12 09:52:06;;;;;;;16.15;10.52;;;19.90;96.10;;;;;;5093151;28;20043;-79
2023/08/12 09:54:32;;;;;;;9.25;4.63;;;19.60;96.00;;;;;;5075777;28;20048;-80
2023/08/12 09:57:00;;;;;;;7.88;3.97;;;19.50;95.90;;;;;;5076901;28;20392;-80
2023/08/12 09:59:35;;;;;;;11.60;3.85;;;19.20;95.10;;;;;;5076934;28;20476;-80
2023/08/12 10:02:07;;;;;;;6.63;3.65;;;19.00;94.70;;;;;;5095255;28;20097;-80
2023/08/12 10:04:41;;;;;;;7.30;3.58;;;18.80;94.50;;;;;;5095063;28;20036;-79
2023/08/12 10:07:09;;;;;;;7.03;3.40;;;18.80;94.00;;;;;;5092412;28;20100;-80
2023/08/12 10:09:36;;;;;;;8.90;3.65;;;18.70;93.80;;;;;;5075543;28;20073;-80
2023/08/12 10:12:02;;;;;;;6.57;3.45;;;18.60;93.70;;;;;;5092387;28;20047;-81
2023/08/12 10:14:29;;;;;;;5.85;3.40;;;18.60;93.60;;;;;;5092973;28;20373;-79
2023/08/12 10:16:56;;;;;;;9.18;3.22;;;18.60;93.10;;;;;;5092916;28;20044;-79
2023/08/12 10:19:25;;;;;;;6.55;2.95;;;18.50;93.00;;;;;;5093545;28;20057;-80
2023/08/12 10:21:56;;;;;;;6.05;2.50;;;18.50;93.10;;;;;;5059754;28;20105;-82
2023/08/12 10:24:25;;;;;;;6.45;2.47;;;18.40;92.70;;;;;;5076080;28;20075;-80
2023/08/12 10:26:52;;;;;;;6.68;2.13;;;18.30;92.30;;;;;;5059007;28;20062;-81
2023/08/12 10:29:19;;;;;;;5.80;2.70;;;18.20;92.20;;;;;;5092073;28;20047;-81
2023/08/12 10:31:46;;;;;;;8.10;2.83;;;18.20;91.90;;;;;;5075017;28;20035;-80
2023/08/12 10:34:23;;;;;;;9.77;2.75;;;18.20;91.80;;;;;;5091924;28;20044;-80
2023/08/12 10:36:54;;;;;;;7.60;2.95;;;18.20;91.80;;;;;;5075269;28;20149;-80
2023/08/12 10:39:26;;;;;;;6.45;3.00;;;18.20;91.90;;;;;;5074927;28;20393;-80
2023/08/12 10:41:54;;;;;;;5.95;3.05;;;18.30;92.10;;;;;;5075458;28;20396;-80
2023/08/12 10:44:22;;;;;;;7.50;2.33;;;18.40;92.10;;;;;;5092109;28;20357;-80
2023/08/12 10:46:52;;;;;;;9.45;2.75;;;18.40;92.20;;;;;;5091851;28;20040;-80
2023/08/12 10:49:21;;;;;;;8.38;2.85;;;18.50;92.30;;;;;;5058345;28;20046;-81
2023/08/12 10:51:50;;;;;;;6.88;3.03;;;18.50;91.90;;;;;;5091719;28;20072;-79
2023/08/12 10:54:31;;;;;;;6.90;3.15;;;18.50;91.90;;;;;;5091925;28;20075;-80
2023/08/12 10:57:04;;;;;;;7.85;3.60;;;18.50;92.20;;;;;;5058709;28;20500;-80
2023/08/12 10:59:44;;;;;;;10.73;3.85;;;18.50;92.10;;;;;;5075117;28;20366;-80
2023/08/12 11:02:18;;;;;;;8.35;3.95;;;18.60;92.20;;;;;;5091691;28;20047;-80
2023/08/12 11:04:44;;;;;;;8.53;2.83;;;18.50;92.10;;;;;;5091880;28;20443;-80
2023/08/12 11:07:21;;;;;;;7.25;3.20;;;18.50;92.30;;;;;;5074818;28;20837;-80
2023/08/12 11:09:55;;;;;;;7.43;3.30;;;18.50;92.50;;;;;;5074606;28;20047;-80
2023/08/12 11:12:32;;;;;;;10.23;3.72;;;18.60;92.60;;;;;;5074779;28;20036;-79
2023/08/12 11:15:03;;;;;;;12.20;4.00;;;18.50;92.50;;;;;;5091580;28;20036;-80
2023/08/12 11:17:42;;;;;;;7.63;2.90;;;18.50;92.40;;;;;;5091478;28;20044;-81
2023/08/12 11:20:10;;;;;;;6.15;3.13;;;18.60;92.50;;;;;;5058125;28;20090;-80
2023/08/12 11:22:38;;;;;;;9.88;4.45;;;18.60;92.60;;;;;;5058169;28;20085;-79
2023/08/12 11:25:08;;;;;;;9.38;3.55;;;18.60;92.80;;;;;;5091670;28;20388;-80
2023/08/12 11:27:52;;;;;;;10.07;3.92;;;18.60;92.80;;;;;;5075085;28;20221;-80
2023/08/12 11:30:20;;;;;;;10.95;3.90;;;18.70;92.80;;;;;;5074906;28;20089;-80
2023/08/12 11:32:50;;;;;;;6.35;3.83;;;18.70;92.90;;;;;;5091134;28;20052;-80
2023/08/12 11:35:18;;;;;;;9.55;4.13;;;18.70;93.00;;;;;;5074540;28;20036;-79
2023/08/12 11:37:55;;;;;;;10.07;3.88;;;18.80;92.90;;;;;;5074523;28;20048;-80
2023/08/12 11:40:22;;;;;;;10.95;4.07;;;18.80;93.00;;;;;;5091498;28;20063;-81
2023/08/12 11:42:50;;;;;;;8.68;3.95;;;18.80;93.00;;;;;;5074633;28;20084;-80
2023/08/12 11:45:18;;;;;;;8.07;3.95;;;18.90;93.00;;;;;;5074346;28;20048;-80
2023/08/12 11:47:45;;;;;;;8.00;3.50;;;18.90;93.00;;;;;;5074371;28;20040;-79
2023/08/12 11:50:13;;;;;;;5.45;3.00;;;18.90;93.00;;;;;;5093849;28;20047;-80
2023/08/12 11:52:39;;;;;;;6.28;2.90;;;19.00;92.20;;;;;;5095068;28;20040;-81
2023/08/12 11:55:06;;;;;;;7.50;3.55;;;19.10;91.20;;;;;;5095031;28;20044;-80
2023/08/12 11:57:34;;;;;;;9.32;3.25;;;19.20;90.70;;;;;;5077819;28;20050;-80
2023/08/12 12:00:02;;;;;;;7.38;3.50;;;19.40;90.20;;;;;;5094859;28;20048;-81
2023/08/12 12:02:28;;;;;;;9.15;2.90;;;19.40;90.30;;;;;;5077771;28;20036;-80
2023/08/12 12:04:53;;;;;;;5.60;2.75;;;19.50;89.80;;;;;;5061065;28;20044;-81
2023/08/12 12:07:25;;;;;;;6.80;2.90;;;19.60;88.90;;;;;;5060886;28;20127;-81
2023/08/12 12:09:52;;;;;;;8.15;3.35;;;19.80;87.40;;;;;;5094454;28;20048;-81
2023/08/12 12:12:18;;;;;;;9.35;3.28;;;19.90;86.70;;;;;;5077741;28;20113;-80
2023/08/12 12:14:46;;;;;;;7.57;4.10;;;20.20;86.70;;;;;;5077579;28;20040;-80
2023/08/12 12:17:14;;;;;;;5.93;3.45;;;20.50;86.90;;;;;;5077539;28;20434;-79
2023/08/12 12:19:41;;;;;;;8.15;3.97;;;20.90;86.60;;;;;;5094304;28;20048;-79
2023/08/12 12:22:07;;;;;;;12.52;5.13;;;21.20;86.30;;;;;;5094254;28;20079;-79
2023/08/12 12:24:46;;;;;;;10.23;3.75;;;21.50;85.10;;;;;;5077437;28;20090;-80
2023/08/12 12:27:12;;;;;;;10.45;3.60;;;21.70;83.60;;;;;;5077054;28;20476;-79
2023/08/12 12:29:37;;;;;;;12.50;3.97;;;21.90;82.50;;;;;;5094155;28;20047;-80
2023/08/12 12:32:04;;;;;;;8.20;3.20;;;22.10;82.70;;;;;;5077010;28;20135;-79
2023/08/12 12:34:30;;;;;;;8.55;3.55;;;22.40;82.40;;;;;;5057073;28;20045;-79